Time;durP1;ratioP1;P1;durP2;ratioP2;P2;SDS_P1;SDS_P2;PMS_P1;PMS_P2;Temp;Humidity;BMP_temperature;BMP_pressure;BME280_temperature;BME280_humidity;BME280_pressure;Samples;Min_cycle;Max_cycle;Signal;HPM_P1;HPM_P2
2024/04/01 00:03:51;;;;;;;2.70;0.50;;;;;;;;;;10327420;28;20049;-77
2024/04/01 00:08:52;;;;;;;;;;;;;;;;;;10329436;28;20038;-75
2024/04/01 00:13:56;;;;;;;0.32;0.20;;;;;;;;;;10326058;28;20432;-75
2024/04/01 00:18:58;;;;;;;0.95;0.30;;;;;;;;;;10333218;28;20049;-74
2024/04/01 00:24:03;;;;;;;0.35;0.25;;;;;;;;;;10330117;28;20045;-75
2024/04/01 00:29:06;;;;;;;1.20;0.35;;;;;;;;;;10329754;28;20427;-75
2024/04/01 00:34:07;;;;;;;3.72;0.60;;;;;;;;;;10332689;28;20100;-77
2024/04/01 00:39:09;;;;;;;1.05;0.10;;;;;;;;;;10310210;28;20505;-75
2024/04/01 00:44:12;;;;;;;0.32;0.10;;;;;;;;;;10334221;28;20081;-76
2024/04/01 00:49:14;;;;;;;2.50;0.25;;;;;;;;;;10328974;28;20042;-76
2024/04/01 00:54:16;;;;;;;0.57;0.22;;;;;;;;;;10307332;28;20044;-77
2024/04/01 00:59:21;;;;;;;0.13;0.13;;;;;;;;;;10315538;28;20082;-76
2024/04/01 01:04:23;;;;;;;0.10;0.10;;;;;;;;;;10331425;28;20108;-77
2024/04/01 01:09:26;;;;;;;6.85;0.30;;;;;;;;;;10321311;28;20119;-76
2024/04/01 01:14:29;;;;;;;1.13;0.10;;;;;;;;;;10321253;28;20044;-76
2024/04/01 01:19:31;;;;;;;0.20;0.20;;;;;;;;;;10332172;28;20044;-77
2024/04/01 01:24:34;;;;;;;1.13;0.38;;;;;;;;;;10339996;28;20530;-77
2024/04/01 01:29:35;;;;;;;1.85;0.22;;;;;;;;;;10337005;28;20104;-77
2024/04/01 01:34:38;;;;;;;0.20;0.10;;;;;;;;;;10321917;28;20037;-76
2024/04/01 01:39:40;;;;;;;0.20;0.20;;;;;;;;;;10326248;28;20042;-75
2024/04/01 01:44:42;;;;;;;0.57;0.10;;;;;;;;;;10349973;28;20115;-76
2024/04/01 01:49:44;;;;;;;1.42;0.35;;;;;;;;;;10337343;28;20495;-77
2024/04/01 01:54:48;;;;;;;0.52;0.13;;;;;;;;;;10327026;28;20053;-77
2024/04/01 01:59:49;;;;;;;0.95;0.60;;;;;;;;;;10328415;28;20046;-75
2024/04/01 02:04:55;;;;;;;1.75;0.45;;;;;;;;;;10350016;28;20517;-76
2024/04/01 02:09:58;;;;;;;0.93;0.30;;;;;;;;;;10348565;28;20159;-76
2024/04/01 02:15:00;;;;;;;0.82;0.15;;;;;;;;;;10333425;28;20057;-76
2024/04/01 02:20:11;;;;;;;2.90;0.52;;;;;;;;;;10335566;28;20046;-75
2024/04/01 02:25:17;;;;;;;2.55;0.63;;;;;;;;;;10334477;28;20027;-75
2024/04/01 02:30:23;;;;;;;0.15;0.10;;;;;;;;;;10335419;28;20386;-76
2024/04/01 02:35:24;;;;;;;0.40;0.20;;;;;;;;;;10336839;28;20034;-76
2024/04/01 02:40:29;;;;;;;1.58;0.47;;;;;;;;;;10314493;28;20372;-76
2024/04/01 02:45:30;;;;;;;1.27;0.35;;;;;;;;;;10330690;28;20036;-76
2024/04/01 02:50:32;;;;;;;5.47;0.60;;;;;;;;;;10331845;28;20053;-77
2024/04/01 02:55:35;;;;;;;1.27;0.22;;;;;;;;;;10338049;28;20668;-76
2024/04/01 03:00:37;;;;;;;3.37;0.50;;;;;;;;;;10333566;28;20038;-78
2024/04/01 03:05:39;;;;;;;1.55;0.50;;;;;;;;;;10332725;28;20041;-78
2024/04/01 03:10:43;;;;;;;1.00;0.40;;;;;;;;;;10328226;28;20049;-77
2024/04/01 03:15:45;;;;;;;2.78;0.38;;;;;;;;;;10327119;28;20399;-76
2024/04/01 03:20:47;;;;;;;2.38;0.40;;;;;;;;;;10328552;28;20421;-78
2024/04/01 03:25:53;;;;;;;2.90;0.82;;;;;;;;;;10328222;28;20042;-76
2024/04/01 03:30:55;;;;;;;2.30;0.30;;;;;;;;;;10329960;28;20049;-77
2024/04/01 03:35:57;;;;;;;0.00;0.00;;;;;;;;;;10318137;28;20115;-76
2024/04/01 03:41:00;;;;;;;1.17;0.30;;;;;;;;;;10329795;28;20046;-77
2024/04/01 03:46:09;;;;;;;4.88;0.60;;;;;;;;;;10326183;28;20060;-76
2024/04/01 03:51:10;;;;;;;0.30;0.17;;;;;;;;;;10349772;28;20687;-77
2024/04/01 03:56:14;;;;;;;2.42;0.60;;;;;;;;;;10324294;28;20041;-76
2024/04/01 04:01:22;;;;;;;1.75;0.30;;;;;;;;;;10324634;28;20042;-77
2024/04/01 04:06:25;;;;;;;2.55;0.40;;;;;;;;;;10313462;28;20462;-76
2024/04/01 04:11:28;;;;;;;0.30;0.30;;;;;;;;;;10330073;28;20517;-77
2024/04/01 04:16:30;;;;;;;4.82;0.77;;;;;;;;;;10332446;28;20375;-76
2024/04/01 04:21:32;;;;;;;0.65;0.50;;;;;;;;;;10324507;28;20049;-76
2024/04/01 04:26:36;;;;;;;1.00;0.25;;;;;;;;;;10331120;28;20036;-75
2024/04/01 04:31:40;;;;;;;1.38;0.30;;;;;;;;;;10316007;28;20054;-76
2024/04/01 04:36:42;;;;;;;2.15;0.50;;;;;;;;;;10328006;28;20049;-74
2024/04/01 04:41:48;;;;;;;2.28;0.70;;;;;;;;;;10314191;28;20450;-75
2024/04/01 04:46:58;;;;;;;1.60;0.30;;;;;;;;;;10312086;28;20038;-76
2024/04/01 04:52:00;;;;;;;0.05;0.05;;;;;;;;;;10352472;28;20062;-78
2024/04/01 04:57:07;;;;;;;0.47;0.28;;;;;;;;;;10327753;28;20576;-77
2024/04/01 05:02:09;;;;;;;0.37;0.17;;;;;;;;;;10309735;28;20046;-77
2024/04/01 05:07:10;;;;;;;0.82;0.35;;;;;;;;;;10326569;28;20080;-77
2024/04/01 05:12:14;;;;;;;0.85;0.30;;;;;;;;;;10330484;28;20033;-77
2024/04/01 05:17:16;;;;;;;0.63;0.47;;;;;;;;;;10325347;28;20037;-77
2024/04/01 05:22:18;;;;;;;1.13;0.43;;;;;;;;;;10328414;28;20111;-77
2024/04/01 05:27:22;;;;;;;1.02;0.30;;;;;;;;;;10327502;28;20042;-77
2024/04/01 05:32:24;;;;;;;0.73;0.55;;;;;;;;;;10328260;28;20481;-77
2024/04/01 05:37:26;;;;;;;0.65;0.15;;;;;;;;;;10327153;28;20347;-77
2024/04/01 05:42:29;;;;;;;1.05;0.40;;;;;;;;;;10327006;28;20085;-77
2024/04/01 05:47:31;;;;;;;;;;;;;;;;;;10323197;28;20039;-75
2024/04/01 05:52:34;;;;;;;1.35;0.40;;;;;;;;;;10322604;28;19925;-76
2024/04/01 05:57:37;;;;;;;1.10;0.30;;;;;;;;;;10330055;28;20106;-77
2024/04/01 06:02:39;;;;;;;2.90;0.50;;;;;;;;;;10329703;28;20494;-77
2024/04/01 06:07:41;;;;;;;1.20;0.50;;;;;;;;;;10333571;28;20084;-75
2024/04/01 06:12:45;;;;;;;2.53;0.50;;;;;;;;;;10332271;28;20137;-77
2024/04/01 06:17:50;;;;;;;1.65;0.60;;;;;;;;;;10325535;28;20483;-76
2024/04/01 06:22:59;;;;;;;1.52;0.60;;;;;;;;;;10333746;28;20048;-76
2024/04/01 06:28:03;;;;;;;1.10;0.13;;;;;;;;;;10331785;28;20235;-77
2024/04/01 06:33:06;;;;;;;2.80;0.45;;;;;;;;;;10332291;28;20044;-78
2024/04/01 06:38:09;;;;;;;0.95;0.38;;;;;;;;;;10346503;28;20450;-76
2024/04/01 06:43:12;;;;;;;1.38;0.40;;;;;;;;;;10318735;28;20570;-76
2024/04/01 06:48:14;;;;;;;1.02;0.80;;;;;;;;;;10332533;28;20431;-75
2024/04/01 06:53:17;;;;;;;0.38;0.22;;;;;;;;;;10330465;28;20312;-75
2024/04/01 06:58:20;;;;;;;0.33;0.30;;;;;;;;;;10316458;28;20494;-76
2024/04/01 07:03:25;;;;;;;0.52;0.38;;;;;;;;;;10313410;28;20049;-76
2024/04/01 07:08:28;;;;;;;0.85;0.38;;;;;;;;;;10328108;28;20041;-77
2024/04/01 07:13:32;;;;;;;0.25;0.10;;;;;;;;;;10317787;28;20080;-78
2024/04/01 07:18:35;;;;;;;;;;;;;;;;;;10325151;28;20044;-76
2024/04/01 07:23:39;;;;;;;0.63;0.10;;;;;;;;;;10320960;28;19929;-76
2024/04/01 07:28:43;;;;;;;0.55;0.40;;;;;;;;;;10328477;28;20045;-76
2024/04/01 07:33:55;;;;;;;0.70;0.32;;;;;;;;;;10323306;28;20045;-76
2024/04/01 07:38:57;;;;;;;1.67;0.40;;;;;;;;;;10324266;28;20046;-76
2024/04/01 07:44:01;;;;;;;5.70;0.77;;;;;;;;;;10325821;28;20045;-76
2024/04/01 07:49:03;;;;;;;1.35;0.50;;;;;;;;;;10331542;28;20042;-77
2024/04/01 07:54:05;;;;;;;1.05;0.88;;;;;;;;;;10306465;28;20129;-77
2024/04/01 07:59:09;;;;;;;1.00;0.45;;;;;;;;;;10326117;28;20082;-77
2024/04/01 08:04:16;;;;;;;0.20;0.20;;;;;;;;;;10330660;28;20050;-76
2024/04/01 08:09:18;;;;;;;0.82;0.20;;;;;;;;;;10322625;28;20380;-76
2024/04/01 08:14:27;;;;;;;1.17;0.25;;;;;;;;;;10307234;28;20447;-74
2024/04/01 08:19:29;;;;;;;1.02;0.50;;;;;;;;;;10341912;28;20061;-75
2024/04/01 08:24:31;;;;;;;0.10;0.10;;;;;;;;;;10326136;28;20557;-75
2024/04/01 08:29:35;;;;;;;0.20;0.20;;;;;;;;;;10322795;28;20046;-76
2024/04/01 08:34:37;;;;;;;0.00;0.00;;;;;;;;;;10324441;28;20064;-76
2024/04/01 08:39:39;;;;;;;0.05;0.00;;;;;;;;;;10321299;28;20100;-74
2024/04/01 08:44:43;;;;;;;0.10;0.10;;;;;;;;;;10322020;28;20050;-75
2024/04/01 08:49:48;;;;;;;0.52;0.10;;;;;;;;;;10328003;28;20459;-76
2024/04/01 08:54:50;;;;;;;0.40;0.20;;;;;;;;;;10313955;28;20049;-76
2024/04/01 08:59:54;;;;;;;2.05;0.20;;;;;;;;;;10324376;28;20054;-77
2024/04/01 09:04:59;;;;;;;1.02;0.25;;;;;;;;;;10337707;28;20049;-77
2024/04/01 09:10:01;;;;;;;0.10;0.10;;;;;;;;;;10326006;28;20046;-76
2024/04/01 09:15:15;;;;;;;0.15;0.10;;;;;;;;;;10324256;28;20497;-76
2024/04/01 09:20:18;;;;;;;0.88;0.20;;;;;;;;;;10323862;28;20041;-76
2024/04/01 09:25:23;;;;;;;0.17;0.10;;;;;;;;;;10340457;28;20878;-75
2024/04/01 09:30:27;;;;;;;0.08;0.08;;;;;;;;;;10324815;28;20134;-76
2024/04/01 09:35:29;;;;;;;1.33;0.20;;;;;;;;;;10327803;28;20042;-78
2024/04/01 09:40:32;;;;;;;0.32;0.20;;;;;;;;;;10333473;28;20042;-77
2024/04/01 09:45:45;;;;;;;0.20;0.10;;;;;;;;;;10348752;28;20042;-78
2024/04/01 09:50:49;;;;;;;0.00;0.00;;;;;;;;;;10331141;28;20442;-76
2024/04/01 09:56:10;;;;;;;0.52;0.20;;;;;;;;;;10327880;28;20050;-77
2024/04/01 10:01:31;;;;;;;0.05;0.05;;;;;;;;;;10317532;28;20149;-77
2024/04/01 10:06:50;;;;;;;0.20;0.20;;;;;;;;;;10331256;28;20041;-76
2024/04/01 10:12:02;;;;;;;0.15;0.00;;;;;;;;;;10330314;28;20049;-77
2024/04/01 10:17:21;;;;;;;1.58;1.25;;;;;;;;;;10347556;28;20710;-77
2024/04/01 10:22:37;;;;;;;1.63;1.17;;;;;;;;;;10333137;28;20104;-77
2024/04/01 10:27:56;;;;;;;2.85;1.88;;;;;;;;;;10329884;28;20426;-76
2024/04/01 10:33:24;;;;;;;2.08;1.58;;;;;;;;;;10334731;28;20057;-77
2024/04/01 10:38:46;;;;;;;0.73;0.68;;;;;;;;;;10344483;28;20041;-75
2024/04/01 10:43:59;;;;;;;0.70;0.70;;;;;;;;;;10326001;28;20056;-77
2024/04/01 10:49:21;;;;;;;2.40;0.60;;;;;;;;;;10328541;28;20038;-77
2024/04/01 10:54:38;;;;;;;0.35;0.20;;;;;;;;;;10320180;28;20037;-77
2024/04/01 11:00:07;;;;;;;0.15;0.15;;;;;;;;;;10329703;28;20050;-77
2024/04/01 11:05:29;;;;;;;8.20;5.47;;;;;;;;;;10329265;28;20096;-76
2024/04/01 11:10:46;;;;;;;5.15;2.67;;;;;;;;;;10333174;28;20439;-78
2024/04/01 11:15:51;;;;;;;2.40;1.65;;;;;;;;;;10328280;28;20042;-76
2024/04/01 11:21:01;;;;;;;0.82;0.20;;;;;;;;;;10326059;28;20084;-76
2024/04/01 11:26:22;;;;;;;0.17;0.13;;;;;;;;;;10326364;28;20651;-77
2024/04/01 11:31:24;;;;;;;0.30;0.30;;;;;;;;;;10327001;28;20089;-77
2024/04/01 11:36:36;;;;;;;0.80;0.38;;;;;;;;;;10326123;28;20499;-77
2024/04/01 11:41:42;;;;;;;0.63;0.40;;;;;;;;;;10325112;28;20057;-77
2024/04/01 11:46:45;;;;;;;0.30;0.20;;;;;;;;;;10328087;28;20060;-76
2024/04/01 11:51:51;;;;;;;0.33;0.20;;;;;;;;;;10326843;28;20042;-77
2024/04/01 11:56:53;;;;;;;0.20;0.20;;;;;;;;;;10332715;28;20487;-77
2024/04/01 12:01:55;;;;;;;0.55;0.28;;;;;;;;;;10333920;28;20045;-77
2024/04/01 12:07:00;;;;;;;0.00;0.00;;;;;;;;;;10325288;28;20042;-76
2024/04/01 12:12:02;;;;;;;0.57;0.20;;;;;;;;;;10329655;28;20049;-77
2024/04/01 12:17:07;;;;;;;0.13;0.10;;;;;;;;;;10344141;28;20053;-77
2024/04/01 12:22:10;;;;;;;0.05;0.05;;;;;;;;;;10326101;28;20041;-77
2024/04/01 12:27:12;;;;;;;0.10;0.10;;;;;;;;;;10327746;28;20133;-77
2024/04/01 12:32:15;;;;;;;0.10;0.10;;;;;;;;;;10325679;28;20041;-77
2024/04/01 12:37:25;;;;;;;0.10;0.10;;;;;;;;;;10336626;28;20065;-76
2024/04/01 12:42:29;;;;;;;0.05;0.03;;;;;;;;;;10324973;28;20038;-76
2024/04/01 12:47:31;;;;;;;0.10;0.10;;;;;;;;;;10329244;28;20935;-76
2024/04/01 12:52:41;;;;;;;0.08;0.08;;;;;;;;;;10325908;28;20530;-77
2024/04/01 12:58:02;;;;;;;0.30;0.30;;;;;;;;;;10329694;28;20040;-77
2024/04/01 13:03:16;;;;;;;0.85;0.22;;;;;;;;;;10327420;28;20049;-78
2024/04/01 13:08:26;;;;;;;0.35;0.20;;;;;;;;;;10322540;28;20085;-77
2024/04/01 13:13:37;;;;;;;0.25;0.20;;;;;;;;;;10327685;28;20822;-75
2024/04/01 13:18:52;;;;;;;0.40;0.10;;;;;;;;;;10325554;28;20529;-76
2024/04/01 13:24:03;;;;;;;0.85;0.20;;;;;;;;;;10328316;28;20050;-75
2024/04/01 13:29:10;;;;;;;0.10;0.10;;;;;;;;;;10340191;28;20125;-75
2024/04/01 13:34:23;;;;;;;0.20;0.20;;;;;;;;;;10338352;28;20053;-75
2024/04/01 13:39:32;;;;;;;0.68;0.20;;;;;;;;;;10320895;28;20042;-75
2024/04/01 13:44:45;;;;;;;0.32;0.20;;;;;;;;;;10314473;28;20534;-75
2024/04/01 13:49:55;;;;;;;0.17;0.17;;;;;;;;;;10379376;23;20692;-76
2024/04/01 13:55:05;;;;;;;0.22;0.20;;;;;;;;;;10364713;28;20042;-76
2024/04/01 14:00:12;;;;;;;0.10;0.10;;;;;;;;;;10363820;28;20404;-77
2024/04/01 14:05:26;;;;;;;1.50;0.22;;;;;;;;;;10360081;28;20045;-75
2024/04/01 14:10:33;;;;;;;2.35;1.00;;;;;;;;;;10360421;28;20042;-75
2024/04/01 14:15:40;;;;;;;0.43;0.30;;;;;;;;;;10357727;28;20041;-75
2024/04/01 14:20:45;;;;;;;0.15;0.10;;;;;;;;;;10361429;28;20041;-75
2024/04/01 14:25:49;;;;;;;0.10;0.10;;;;;;;;;;10368314;28;20103;-75
2024/04/01 14:30:51;;;;;;;0.70;0.40;;;;;;;;;;10368506;28;20029;-76
2024/04/01 14:35:56;;;;;;;0.40;0.10;;;;;;;;;;10379254;28;20113;-76
2024/04/01 14:40:59;;;;;;;0.38;0.28;;;;;;;;;;10362374;28;20053;-75
2024/04/01 14:46:01;;;;;;;0.10;0.10;;;;;;;;;;10367608;28;21708;-74
2024/04/01 14:51:03;;;;;;;0.20;0.20;;;;;;;;;;10365636;28;20046;-75
2024/04/01 14:56:06;;;;;;;0.52;0.32;;;;;;;;;;10371688;28;20045;-76
2024/04/01 15:01:08;;;;;;;0.20;0.17;;;;;;;;;;10365927;28;20049;-76
2024/04/01 15:06:11;;;;;;;0.35;0.10;;;;;;;;;;10369113;28;20618;-78
2024/04/01 15:11:14;;;;;;;0.20;0.20;;;;;;;;;;10368328;28;20060;-75
2024/04/01 15:16:23;;;;;;;0.35;0.35;;;;;;;;;;10350712;28;20076;-76
2024/04/01 15:21:24;;;;;;;0.90;0.28;;;;;;;;;;10369291;28;20029;-75
2024/04/01 15:26:30;;;;;;;0.30;0.30;;;;;;;;;;10370281;28;20060;-76
2024/04/01 15:31:32;;;;;;;0.20;0.20;;;;;;;;;;10399188;28;20041;-76
2024/04/01 15:36:34;;;;;;;0.28;0.28;;;;;;;;;;10362868;28;20049;-77
2024/04/01 15:41:38;;;;;;;1.30;0.75;;;;;;;;;;10384921;28;20073;-76
2024/04/01 15:46:40;;;;;;;0.20;0.20;;;;;;;;;;10389228;28;20457;-75
2024/04/01 15:51:45;;;;;;;0.40;0.20;;;;;;;;;;10385557;28;20116;-74
2024/04/01 15:56:54;;;;;;;1.45;0.20;;;;;;;;;;10385902;28;20044;-76
2024/04/01 16:01:56;;;;;;;0.20;0.20;;;;;;;;;;10384372;28;20095;-77
2024/04/01 16:06:58;;;;;;;0.70;0.25;;;;;;;;;;10385203;28;20130;-76
2024/04/01 16:12:03;;;;;;;0.40;0.20;;;;;;;;;;10382986;28;20056;-76
2024/04/01 16:17:08;;;;;;;0.40;0.40;;;;;;;;;;10379655;28;20049;-77
2024/04/01 16:22:11;;;;;;;0.45;0.20;;;;;;;;;;10379534;28;20094;-75
2024/04/01 16:27:20;;;;;;;0.20;0.20;;;;;;;;;;10380551;28;20117;-76
2024/04/01 16:32:26;;;;;;;0.50;0.40;;;;;;;;;;10380128;28;20049;-78
2024/04/01 16:37:27;;;;;;;0.30;0.28;;;;;;;;;;10382581;28;20042;-76
2024/04/01 16:42:32;;;;;;;0.30;0.30;;;;;;;;;;10380860;28;20527;-77
2024/04/01 16:47:34;;;;;;;1.45;0.30;;;;;;;;;;10382578;28;20073;-77
2024/04/01 16:52:37;;;;;;;0.17;0.17;;;;;;;;;;10377793;28;20398;-77
2024/04/01 16:57:46;;;;;;;0.75;0.30;;;;;;;;;;10382282;28;20134;-78
2024/04/01 17:02:49;;;;;;;0.15;0.15;;;;;;;;;;10375699;28;20054;-77
2024/04/01 17:07:51;;;;;;;2.33;0.40;;;;;;;;;;10376100;28;20037;-77
2024/04/01 17:13:02;;;;;;;0.93;0.20;;;;;;;;;;10376713;28;20048;-75
2024/04/01 17:18:06;;;;;;;0.10;0.10;;;;;;;;;;10376745;28;20045;-79
2024/04/01 17:23:11;;;;;;;0.57;0.33;;;;;;;;;;10374424;28;20224;-74
2024/04/01 17:28:22;;;;;;;2.30;0.32;;;;;;;;;;10374380;28;20397;-75
2024/04/01 17:33:28;;;;;;;0.30;0.30;;;;;;;;;;10359929;28;20128;-77
2024/04/01 17:38:30;;;;;;;0.90;0.80;;;;;;;;;;10370174;28;20064;-75
2024/04/01 17:43:34;;;;;;;0.57;0.40;;;;;;;;;;10382495;28;20052;-76
2024/04/01 17:48:37;;;;;;;0.85;0.35;;;;;;;;;;10371018;28;20034;-76
2024/04/01 17:53:42;;;;;;;0.35;0.32;;;;;;;;;;10376786;28;20033;-76
2024/04/01 17:58:46;;;;;;;0.60;0.60;;;;;;;;;;10382079;28;20072;-76
2024/04/01 18:03:48;;;;;;;0.75;0.40;;;;;;;;;;10379963;28;20041;-76
2024/04/01 18:08:51;;;;;;;0.65;0.40;;;;;;;;;;10380057;28;20458;-78
2024/04/01 18:13:54;;;;;;;0.85;0.60;;;;;;;;;;10380427;28;20068;-77
2024/04/01 18:18:57;;;;;;;1.00;0.45;;;;;;;;;;10383574;28;20483;-76
2024/04/01 18:24:00;;;;;;;0.20;0.20;;;;;;;;;;10383034;28;20148;-82
2024/04/01 18:29:29;;;;;;;1.85;0.43;;;;;;;;;;10371711;28;20117;-74
2024/04/01 18:34:32;;;;;;;0.20;0.20;;;;;;;;;;10384783;28;20064;-77
2024/04/01 18:39:35;;;;;;;1.25;0.70;;;;;;;;;;10380414;28;20033;-77
2024/04/01 18:44:38;;;;;;;1.40;0.40;;;;;;;;;;10385225;28;20109;-76
2024/04/01 18:49:40;;;;;;;0.30;0.15;;;;;;;;;;10381031;28;20353;-77
2024/04/01 18:54:43;;;;;;;1.15;0.50;;;;;;;;;;10384913;28;20091;-75
2024/04/01 18:59:47;;;;;;;0.95;0.73;;;;;;;;;;10390166;28;20059;-77
2024/04/01 19:04:53;;;;;;;0.40;0.40;;;;;;;;;;10371842;28;20053;-77
2024/04/01 19:09:59;;;;;;;1.25;0.70;;;;;;;;;;10362387;28;20034;-75
2024/04/01 19:15:06;;;;;;;0.22;0.22;;;;;;;;;;10349943;28;20192;-76
2024/04/01 19:20:09;;;;;;;0.30;0.30;;;;;;;;;;10363625;28;20041;-76
2024/04/01 19:25:11;;;;;;;0.47;0.13;;;;;;;;;;10356518;28;20046;-76
2024/04/01 19:30:17;;;;;;;0.43;0.40;;;;;;;;;;10364827;28;20491;-77
2024/04/01 19:35:19;;;;;;;0.45;0.22;;;;;;;;;;10362047;28;20041;-76
2024/04/01 19:40:24;;;;;;;0.40;0.20;;;;;;;;;;10364619;28;20045;-78
2024/04/01 19:45:29;;;;;;;1.08;0.40;;;;;;;;;;10361237;28;20147;-76
2024/04/01 19:50:32;;;;;;;0.10;0.10;;;;;;;;;;10378236;28;20087;-77
2024/04/01 19:55:38;;;;;;;0.77;0.40;;;;;;;;;;10363781;28;20045;-76
2024/04/01 20:00:41;;;;;;;1.15;0.22;;;;;;;;;;10362511;28;20048;-76
2024/04/01 20:05:45;;;;;;;0.50;0.40;;;;;;;;;;10380625;28;20045;-77
2024/04/01 20:10:48;;;;;;;0.30;0.25;;;;;;;;;;10360112;28;20528;-77
2024/04/01 20:15:51;;;;;;;0.52;0.40;;;;;;;;;;10364331;28;20587;-74
2024/04/01 20:20:54;;;;;;;2.20;0.32;;;;;;;;;;10362311;28;20034;-76
2024/04/01 20:25:56;;;;;;;0.45;0.40;;;;;;;;;;10364555;28;20040;-77
2024/04/01 20:31:00;;;;;;;0.93;0.40;;;;;;;;;;10361703;28;20034;-75
2024/04/01 20:36:02;;;;;;;0.55;0.45;;;;;;;;;;10362799;28;20430;-78
2024/04/01 20:41:04;;;;;;;0.65;0.40;;;;;;;;;;10357770;28;20049;-77
2024/04/01 20:46:08;;;;;;;1.23;0.40;;;;;;;;;;10364307;28;20045;-76
2024/04/01 20:51:14;;;;;;;1.02;0.80;;;;;;;;;;10359492;28;20045;-75
2024/04/01 20:56:31;;;;;;;1.27;0.65;;;;;;;;;;10360517;28;20143;-77
2024/04/01 21:01:34;;;;;;;0.80;0.30;;;;;;;;;;10368686;28;20033;-77
2024/04/01 21:06:36;;;;;;;2.20;0.30;;;;;;;;;;10366300;28;20042;-76
2024/04/01 21:11:40;;;;;;;0.47;0.32;;;;;;;;;;10363475;28;20049;-76
2024/04/01 21:16:47;;;;;;;0.30;0.30;;;;;;;;;;10363170;28;20583;-76
2024/04/01 21:21:50;;;;;;;0.40;0.40;;;;;;;;;;10366039;28;20042;-76
2024/04/01 21:26:52;;;;;;;0.10;0.10;;;;;;;;;;10362286;28;20633;-76
2024/04/01 21:31:58;;;;;;;0.47;0.32;;;;;;;;;;10378782;28;20470;-76
2024/04/01 21:37:00;;;;;;;0.20;0.20;;;;;;;;;;10370022;28;20050;-75
2024/04/01 21:42:04;;;;;;;0.95;0.50;;;;;;;;;;10367985;28;20797;-75
2024/04/01 21:47:07;;;;;;;0.63;0.28;;;;;;;;;;10370651;28;20532;-76
2024/04/01 21:52:10;;;;;;;0.47;0.20;;;;;;;;;;10366784;28;20048;-77
2024/04/01 21:57:17;;;;;;;0.50;0.25;;;;;;;;;;10367562;28;20057;-76
2024/04/01 22:02:20;;;;;;;0.20;0.20;;;;;;;;;;10376447;28;20433;-77
2024/04/01 22:07:23;;;;;;;1.08;0.30;;;;;;;;;;10366015;28;20096;-77
2024/04/01 22:12:24;;;;;;;1.38;0.28;;;;;;;;;;10381633;28;20042;-77
2024/04/01 22:17:28;;;;;;;0.40;0.30;;;;;;;;;;10367036;28;20048;-77
2024/04/01 22:22:33;;;;;;;0.47;0.10;;;;;;;;;;10368369;28;20148;-76
2024/04/01 22:27:36;;;;;;;6.43;0.40;;;;;;;;;;10369946;28;20557;-76
2024/04/01 22:32:42;;;;;;;0.80;0.40;;;;;;;;;;10351325;28;20045;-76
2024/04/01 22:37:47;;;;;;;0.20;0.20;;;;;;;;;;10367331;28;20042;-77
2024/04/01 22:42:49;;;;;;;1.85;0.35;;;;;;;;;;10362190;28;20042;-76
2024/04/01 22:47:52;;;;;;;0.55;0.22;;;;;;;;;;10365076;28;20069;-76
2024/04/01 22:52:54;;;;;;;0.77;0.30;;;;;;;;;;10366535;28;20121;-77
2024/04/01 22:57:56;;;;;;;0.32;0.20;;;;;;;;;;10372361;28;20048;-76
2024/04/01 23:02:59;;;;;;;1.65;0.40;;;;;;;;;;10369117;28;20041;-76
2024/04/01 23:08:01;;;;;;;0.55;0.30;;;;;;;;;;10363439;28;20053;-76
2024/04/01 23:13:03;;;;;;;0.45;0.40;;;;;;;;;;10380206;28;20049;-77
2024/04/01 23:18:08;;;;;;;1.40;0.40;;;;;;;;;;10362080;28;20386;-76
2024/04/01 23:23:10;;;;;;;0.45;0.40;;;;;;;;;;10366629;28;20473;-77
2024/04/01 23:28:13;;;;;;;0.10;0.10;;;;;;;;;;10361852;28;20406;-76
2024/04/01 23:33:16;;;;;;;0.30;0.30;;;;;;;;;;10363519;28;20275;-76
2024/04/01 23:38:18;;;;;;;1.85;0.45;;;;;;;;;;10362238;28;20064;-76
2024/04/01 23:43:21;;;;;;;0.80;0.47;;;;;;;;;;10363364;28;20056;-76
2024/04/01 23:48:25;;;;;;;0.73;0.30;;;;;;;;;;10380962;28;20064;-77
2024/04/01 23:53:27;;;;;;;0.53;0.20;;;;;;;;;;10364160;28;20036;-77
2024/04/01 23:58:28;;;;;;;3.22;0.45;;;;;;;;;;10384720;28;20443;-78
